Time;durP1;ratioP1;P1;durP2;ratioP2;P2;SDS_P1;SDS_P2;PMS_P1;PMS_P2;Temp;Humidity;BMP_temperature;BMP_pressure;BME280_temperature;BME280_humidity;BME280_pressure;Samples;Min_cycle;Max_cycle;Signal;HPM_P1;HPM_P2
2022/10/23 00:00:39;;;;;;;14.53;10.33;;;15.50;52.90;;;;;;5034268;28;20194;-43
2022/10/23 00:03:05;;;;;;;15.03;10.80;;;15.60;52.90;;;;;;5034166;28;20252;-43
2022/10/23 00:05:31;;;;;;;10.73;9.27;;;15.60;52.90;;;;;;5033722;28;20401;-43
2022/10/23 00:07:58;;;;;;;10.50;9.17;;;15.60;53.00;;;;;;5033663;28;20198;-43
2022/10/23 00:10:26;;;;;;;13.00;9.15;;;15.60;53.80;;;;;;5016076;28;20857;-41
2022/10/23 00:12:52;;;;;;;10.75;9.65;;;15.60;53.50;;;;;;5033915;28;20231;-42
2022/10/23 00:15:20;;;;;;;10.82;9.25;;;16.10;53.60;;;;;;5033709;28;20223;-42
2022/10/23 00:17:46;;;;;;;13.23;9.13;;;15.50;53.40;;;;;;5033026;28;20196;-43
2022/10/23 00:20:14;;;;;;;12.02;9.77;;;15.50;53.60;;;;;;5033848;28;20228;-42
2022/10/23 00:22:40;;;;;;;12.02;8.10;;;15.60;53.60;;;;;;5033748;28;20175;-42
2022/10/23 00:25:07;;;;;;;9.95;8.95;;;15.60;53.40;;;;;;5033669;28;20198;-42
2022/10/23 00:27:34;;;;;;;9.25;8.25;;;15.60;53.30;;;;;;5033066;28;20182;-43
2022/10/23 00:30:00;;;;;;;12.52;9.57;;;15.60;53.20;;;;;;5033509;28;20541;-42
2022/10/23 00:32:26;;;;;;;10.10;7.60;;;15.60;53.20;;;;;;5033414;28;20166;-43
2022/10/23 00:34:53;;;;;;;11.18;8.57;;;15.60;53.20;;;;;;5033190;28;20661;-41
2022/10/23 00:37:18;;;;;;;12.02;9.45;;;15.60;53.20;;;;;;5032554;28;20707;-42
2022/10/23 00:39:44;;;;;;;12.83;9.60;;;15.60;53.10;;;;;;5033144;28;20213;-42
2022/10/23 00:42:17;;;;;;;9.43;8.20;;;15.50;53.10;;;;;;5033163;28;20170;-42
2022/10/23 00:44:42;;;;;;;10.55;8.52;;;15.50;52.90;;;;;;5033453;28;20159;-42
2022/10/23 00:47:09;;;;;;;23.77;8.77;;;15.50;52.90;;;;;;5032523;28;20174;-41
2022/10/23 00:49:35;;;;;;;11.00;8.50;;;15.50;53.00;;;;;;5032876;28;20260;-42
2022/10/23 00:52:05;;;;;;;11.63;8.63;;;15.50;52.90;;;;;;5033354;28;20223;-42
2022/10/23 00:54:36;;;;;;;9.52;7.22;;;15.50;53.00;;;;;;5032959;28;20367;-41
2022/10/23 00:57:04;;;;;;;9.15;7.80;;;15.50;52.90;;;;;;5032545;28;20177;-42
2022/10/23 00:59:30;;;;;;;9.05;7.47;;;15.50;52.80;;;;;;5032832;28;20189;-43
2022/10/23 01:01:57;;;;;;;8.93;7.97;;;15.50;52.80;;;;;;5032746;28;20194;-43
2022/10/23 01:04:23;;;;;;;8.60;7.63;;;15.50;52.80;;;;;;5032954;28;20174;-42
2022/10/23 01:07:03;;;;;;;12.00;8.68;;;15.40;52.60;;;;;;5032168;28;20166;-43
2022/10/23 01:09:40;;;;;;;15.20;8.43;;;15.50;52.60;;;;;;5032634;28;20281;-41
2022/10/23 01:12:17;;;;;;;11.77;8.43;;;15.40;52.50;;;;;;5032957;28;20170;-41
2022/10/23 01:14:51;;;;;;;11.00;7.90;;;15.40;52.50;;;;;;5032797;28;20252;-42
2022/10/23 01:17:34;;;;;;;11.32;8.68;;;15.30;52.50;;;;;;5031922;28;20162;-42
2022/10/23 01:20:28;;;;;;;9.23;7.43;;;15.40;52.50;;;;;;5032571;28;20177;-42
2022/10/23 01:23:12;;;;;;;18.88;8.68;;;15.30;52.40;;;;;;5032646;28;20257;-42
2022/10/23 01:26:11;;;;;;;13.32;9.55;;;15.30;52.60;;;;;;5031892;28;20659;-43
2022/10/23 01:28:50;;;;;;;12.00;8.65;;;15.30;53.40;;;;;;5032314;28;20190;-43
2022/10/23 01:31:29;;;;;;;10.90;8.40;;;15.30;52.80;;;;;;5032672;28;20204;-42
2022/10/23 01:34:02;;;;;;;9.20;7.82;;;15.30;52.80;;;;;;5032512;28;20169;-41
2022/10/23 01:36:32;;;;;;;10.95;7.60;;;15.30;52.70;;;;;;5032009;28;20181;-42
2022/10/23 01:39:06;;;;;;;10.75;8.82;;;15.30;52.60;;;;;;5032059;28;20214;-43
2022/10/23 01:41:43;;;;;;;13.15;9.43;;;15.30;52.60;;;;;;5032709;28;20185;-42
2022/10/23 01:44:31;;;;;;;10.43;8.45;;;15.30;52.60;;;;;;5032246;28;20162;-42
2022/10/23 01:46:58;;;;;;;11.30;8.50;;;15.30;52.50;;;;;;5031690;28;20163;-40
2022/10/23 01:49:24;;;;;;;9.65;8.60;;;15.30;52.50;;;;;;5032092;28;20186;-42
2022/10/23 01:52:00;;;;;;;10.60;8.15;;;15.30;52.40;;;;;;5031967;28;20184;-43
2022/10/23 01:54:30;;;;;;;11.30;8.25;;;15.30;52.10;;;;;;5032352;28;20169;-42
2022/10/23 01:56:58;;;;;;;11.18;8.65;;;14.00;51.50;;;;;;5031494;28;20177;-42
2022/10/23 01:59:35;;;;;;;13.35;9.30;;;15.30;52.20;;;;;;5031783;28;20758;-42
2022/10/23 02:02:03;;;;;;;9.82;8.77;;;15.30;52.20;;;;;;5033162;28;20191;-42
2022/10/23 02:04:35;;;;;;;8.73;7.72;;;15.20;52.10;;;;;;5034418;28;20181;-42
2022/10/23 02:07:01;;;;;;;12.65;8.57;;;15.20;52.10;;;;;;5036582;28;20162;-42
2022/10/23 02:09:26;;;;;;;10.20;9.20;;;15.20;52.10;;;;;;5036828;28;20220;-42
2022/10/23 02:12:05;;;;;;;11.70;9.00;;;15.20;52.10;;;;;;5037812;28;20491;-42
2022/10/23 02:14:51;;;;;;;13.13;9.65;;;15.20;52.10;;;;;;5039289;28;20456;-41
2022/10/23 02:17:25;;;;;;;11.13;9.90;;;15.20;52.00;;;;;;5041108;28;20181;-42
2022/10/23 02:20:13;;;;;;;14.05;9.40;;;15.20;52.10;;;;;;5036712;28;20247;-42
2022/10/23 02:22:45;;;;;;;12.38;8.68;;;15.20;52.10;;;;;;5035813;28;20181;-43
2022/10/23 02:25:17;;;;;;;11.10;7.97;;;15.10;52.20;;;;;;5035710;28;20252;-42
2022/10/23 02:28:07;;;;;;;13.50;9.98;;;15.10;52.20;;;;;;5035148;28;20170;-42
2022/10/23 02:30:36;;;;;;;9.45;7.28;;;15.10;52.10;;;;;;5035664;28;20174;-43
2022/10/23 02:33:03;;;;;;;11.38;8.65;;;15.10;52.20;;;;;;5035610;28;20187;-43
2022/10/23 02:35:28;;;;;;;12.70;9.55;;;15.10;52.20;;;;;;5035768;28;20268;-42
2022/10/23 02:37:56;;;;;;;10.70;9.10;;;15.10;52.20;;;;;;5034825;28;20288;-43
2022/10/23 02:40:32;;;;;;;15.10;10.18;;;15.10;52.10;;;;;;5035465;28;20221;-43
2022/10/23 02:43:02;;;;;;;12.98;8.23;;;15.10;52.10;;;;;;5035735;28;20503;-42
2022/10/23 02:45:57;;;;;;;9.63;7.82;;;15.10;52.20;;;;;;5035412;28;20174;-42
2022/10/23 02:48:35;;;;;;;12.25;8.90;;;15.10;52.10;;;;;;5030186;28;20221;-42
2022/10/23 02:51:16;;;;;;;12.07;9.68;;;15.10;52.10;;;;;;5035577;28;20170;-40
2022/10/23 02:54:00;;;;;;;10.15;7.60;;;15.10;52.10;;;;;;5035446;28;20217;-42
2022/10/23 02:56:43;;;;;;;11.13;8.95;;;15.10;52.10;;;;;;5034647;28;20174;-41
2022/10/23 02:59:42;;;;;;;12.10;8.93;;;15.00;52.10;;;;;;5035210;28;20298;-43
2022/10/23 03:02:14;;;;;;;10.40;9.25;;;15.10;52.10;;;;;;5035030;28;20645;-42
2022/10/23 03:04:42;;;;;;;15.00;9.05;;;15.00;52.10;;;;;;5035005;28;20170;-41
2022/10/23 03:07:17;;;;;;;10.30;8.05;;;15.00;52.00;;;;;;5034361;28;20573;-42
2022/10/23 03:09:43;;;;;;;17.70;9.73;;;15.10;52.00;;;;;;5035076;28;20225;-42
2022/10/23 03:12:09;;;;;;;9.63;8.60;;;15.00;51.90;;;;;;5034835;28;20205;-42
2022/10/23 03:14:34;;;;;;;9.80;8.80;;;15.00;51.70;;;;;;5035118;28;20177;-41
2022/10/23 03:17:00;;;;;;;11.07;8.40;;;15.00;51.70;;;;;;5034533;28;20166;-41
2022/10/23 03:19:26;;;;;;;10.67;8.57;;;15.00;51.80;;;;;;5034951;28;20229;-42
2022/10/23 03:21:52;;;;;;;11.03;9.30;;;14.90;51.70;;;;;;5034746;28;20202;-41
2022/10/23 03:24:17;;;;;;;12.60;9.90;;;14.90;51.70;;;;;;5034723;28;20629;-43
2022/10/23 03:26:43;;;;;;;10.40;7.73;;;14.90;51.80;;;;;;5033086;28;20201;-41
2022/10/23 03:29:09;;;;;;;12.30;8.77;;;14.90;51.90;;;;;;5034563;28;20830;-41
2022/10/23 03:31:34;;;;;;;9.60;8.07;;;14.90;51.90;;;;;;5034481;28;20182;-41
2022/10/23 03:34:00;;;;;;;9.43;8.27;;;14.90;51.90;;;;;;5034452;28;20419;-40
2022/10/23 03:36:26;;;;;;;10.43;8.30;;;14.80;51.70;;;;;;5033997;28;20170;-43
2022/10/23 03:38:52;;;;;;;11.17;8.63;;;14.90;51.70;;;;;;5034273;28;20300;-43
2022/10/23 03:41:18;;;;;;;10.18;8.48;;;14.80;51.50;;;;;;5034471;28;20653;-42
2022/10/23 03:43:43;;;;;;;16.40;9.70;;;14.80;51.50;;;;;;5034337;28;20182;-40
2022/10/23 03:46:11;;;;;;;9.50;8.50;;;14.80;51.50;;;;;;5033719;28;20166;-40
2022/10/23 03:48:38;;;;;;;11.50;8.23;;;14.80;51.40;;;;;;5034082;28;20201;-40
2022/10/23 03:51:06;;;;;;;13.93;8.13;;;14.70;51.40;;;;;;5034176;28;20265;-41
2022/10/23 03:53:32;;;;;;;10.05;8.52;;;14.70;51.30;;;;;;5034200;28;20174;-42
2022/10/23 03:55:58;;;;;;;11.90;8.07;;;14.70;51.40;;;;;;5033669;28;20573;-42
2022/10/23 03:58:23;;;;;;;10.50;8.10;;;14.70;51.50;;;;;;5033950;28;20452;-41
2022/10/23 04:00:49;;;;;;;10.10;8.47;;;14.60;51.50;;;;;;5042629;22;20554;-42
2022/10/23 04:03:15;;;;;;;8.20;6.40;;;14.60;51.40;;;;;;5032621;28;20202;-42
2022/10/23 04:05:41;;;;;;;10.33;8.50;;;14.70;51.40;;;;;;5040918;28;20428;-42
2022/10/23 04:08:07;;;;;;;8.15;7.05;;;14.60;51.30;;;;;;5038735;28;20199;-40
2022/10/23 04:10:33;;;;;;;12.10;7.73;;;14.60;51.20;;;;;;5034033;28;20640;-42
2022/10/23 04:12:59;;;;;;;13.43;8.30;;;14.70;51.30;;;;;;5053871;28;20444;-42
2022/10/23 04:15:24;;;;;;;8.83;7.37;;;14.60;51.00;;;;;;5053577;28;20177;-42
2022/10/23 04:17:50;;;;;;;10.00;7.77;;;14.60;51.20;;;;;;5053188;28;20259;-43
2022/10/23 04:20:16;;;;;;;8.60;6.57;;;14.50;51.20;;;;;;5053485;28;20408;-41
2022/10/23 04:22:42;;;;;;;10.03;7.77;;;14.50;51.20;;;;;;5053937;28;20217;-41
2022/10/23 04:25:08;;;;;;;8.27;7.47;;;14.50;51.20;;;;;;5053481;28;20891;-40
2022/10/23 04:27:34;;;;;;;11.93;8.00;;;14.50;51.20;;;;;;5052873;28;20411;-42
2022/10/23 04:30:00;;;;;;;13.80;8.40;;;14.50;51.20;;;;;;5053345;28;20169;-41
2022/10/23 04:32:26;;;;;;;10.43;7.70;;;14.40;51.10;;;;;;5053175;28;20189;-41
2022/10/23 04:34:51;;;;;;;9.52;7.38;;;14.50;51.20;;;;;;5053318;28;20184;-41
2022/10/23 04:37:17;;;;;;;8.83;7.73;;;14.50;51.20;;;;;;5052231;28;20181;-42
2022/10/23 04:39:43;;;;;;;9.83;8.10;;;14.50;51.30;;;;;;5053556;28;20200;-43
2022/10/23 04:42:08;;;;;;;9.90;7.93;;;14.40;51.20;;;;;;5053101;28;20568;-41
2022/10/23 04:44:34;;;;;;;10.30;7.70;;;14.40;51.10;;;;;;5053033;28;20165;-41
2022/10/23 04:47:00;;;;;;;9.23;7.17;;;14.30;51.70;;;;;;5052911;28;20517;-40
2022/10/23 04:49:26;;;;;;;9.17;6.77;;;14.30;51.00;;;;;;5054215;28;20177;-42
2022/10/23 04:51:51;;;;;;;10.13;7.80;;;14.30;50.70;;;;;;5058916;28;20200;-42
2022/10/23 04:54:17;;;;;;;10.10;7.67;;;14.20;50.70;;;;;;5065267;28;20656;-42
2022/10/23 04:56:43;;;;;;;10.40;7.67;;;14.10;50.80;;;;;;5065747;28;20173;-41
2022/10/23 04:59:09;;;;;;;9.43;7.33;;;14.20;50.90;;;;;;5066372;28;20197;-41
2022/10/23 05:01:35;;;;;;;8.60;7.75;;;14.10;50.80;;;;;;5065702;28;20284;-42
2022/10/23 05:04:00;;;;;;;8.67;6.97;;;14.10;50.90;;;;;;5062293;28;20196;-42
2022/10/23 05:06:26;;;;;;;9.87;7.80;;;14.10;50.80;;;;;;5054182;28;20443;-42
2022/10/23 05:08:52;;;;;;;9.57;7.40;;;14.10;50.90;;;;;;5053005;28;20633;-41
2022/10/23 05:11:17;;;;;;;10.20;8.80;;;14.00;50.80;;;;;;5053034;28;20191;-42
2022/10/23 05:13:43;;;;;;;10.43;7.83;;;13.90;50.90;;;;;;5053137;28;20652;-41
2022/10/23 05:16:11;;;;;;;7.60;6.80;;;13.90;50.90;;;;;;5052466;28;20223;-40
2022/10/23 05:18:43;;;;;;;10.30;7.30;;;13.90;50.80;;;;;;5053320;28;20236;-41
2022/10/23 05:21:18;;;;;;;10.90;8.68;;;13.90;50.70;;;;;;5053116;28;20549;-40
2022/10/23 05:23:45;;;;;;;12.40;8.50;;;13.90;50.80;;;;;;5052487;28;20179;-42
2022/10/23 05:26:11;;;;;;;10.20;7.57;;;13.90;50.80;;;;;;5051720;28;20597;-41
2022/10/23 05:28:37;;;;;;;9.00;6.93;;;13.90;50.90;;;;;;5052280;28;20193;-41
2022/10/23 05:31:04;;;;;;;14.30;8.47;;;13.80;50.70;;;;;;5052407;28;20958;-42
2022/10/23 05:33:31;;;;;;;10.02;7.75;;;13.90;50.80;;;;;;5052242;28;20656;-41
2022/10/23 05:35:58;;;;;;;11.68;8.38;;;13.80;50.70;;;;;;5051873;28;20272;-41
2022/10/23 05:38:26;;;;;;;10.15;7.47;;;13.80;50.80;;;;;;5052382;28;20185;-40
2022/10/23 05:40:53;;;;;;;9.50;7.30;;;13.80;50.80;;;;;;5052079;28;20161;-41
2022/10/23 05:43:18;;;;;;;12.10;9.65;;;13.80;50.80;;;;;;5052265;28;20631;-42
2022/10/23 05:45:44;;;;;;;11.70;9.77;;;13.80;50.80;;;;;;5051602;28;20281;-41
2022/10/23 05:48:14;;;;;;;15.20;10.20;;;13.90;51.10;;;;;;5052160;28;20438;-40
2022/10/23 05:50:40;;;;;;;16.83;10.52;;;13.90;51.20;;;;;;5051755;28;20165;-40
2022/10/23 05:53:06;;;;;;;11.47;9.57;;;13.90;51.40;;;;;;5052047;28;20246;-42
2022/10/23 05:55:32;;;;;;;12.90;9.47;;;13.90;51.50;;;;;;5051585;28;20273;-42
2022/10/23 05:58:00;;;;;;;10.50;8.98;;;13.90;51.70;;;;;;5051816;28;20236;-40
2022/10/23 06:00:26;;;;;;;11.30;9.00;;;14.00;51.60;;;;;;5051954;28;20633;-42
2022/10/23 06:02:51;;;;;;;11.10;9.03;;;14.00;51.50;;;;;;5051706;28;20193;-41
2022/10/23 06:05:17;;;;;;;15.23;10.47;;;14.00;51.50;;;;;;5051900;28;20178;-42
2022/10/23 06:07:43;;;;;;;10.80;8.47;;;14.10;51.60;;;;;;5051436;28;20204;-41
2022/10/23 06:10:09;;;;;;;20.90;10.23;;;14.10;51.50;;;;;;5051996;28;20177;-40
2022/10/23 06:12:34;;;;;;;11.65;9.80;;;14.10;51.50;;;;;;5051879;28;20247;-43
2022/10/23 06:15:00;;;;;;;14.00;10.33;;;14.10;51.50;;;;;;5051799;28;20185;-41
2022/10/23 06:17:27;;;;;;;11.43;9.47;;;14.20;51.40;;;;;;5051183;28;20268;-41
2022/10/23 06:19:59;;;;;;;14.40;9.35;;;14.20;51.30;;;;;;5051851;28;20631;-40
2022/10/23 06:22:26;;;;;;;12.48;8.52;;;14.20;51.30;;;;;;5051636;28;20691;-40
2022/10/23 06:24:52;;;;;;;10.00;7.75;;;14.20;51.20;;;;;;5051755;28;20173;-42
2022/10/23 06:27:17;;;;;;;10.43;8.37;;;14.20;51.20;;;;;;5051603;28;20173;-42
2022/10/23 06:29:43;;;;;;;13.00;9.77;;;14.30;51.30;;;;;;5052270;28;20177;-41
2022/10/23 06:32:09;;;;;;;14.00;10.33;;;14.30;51.30;;;;;;5052101;28;20552;-41
2022/10/23 06:34:34;;;;;;;18.63;14.47;;;14.40;51.20;;;;;;5051464;28;20656;-40
2022/10/23 06:37:00;;;;;;;14.50;13.00;;;14.50;51.20;;;;;;5051005;28;20232;-40
2022/10/23 06:39:26;;;;;;;19.10;17.20;;;14.60;51.20;;;;;;5051805;28;20185;-41
2022/10/23 06:41:52;;;;;;;43.50;39.20;;;14.70;51.30;;;;;;5051664;28;20424;-43
2022/10/23 06:44:17;;;;;;;38.63;35.00;;;14.80;51.30;;;;;;5051826;28;20264;-41
2022/10/23 06:46:46;;;;;;;35.53;31.90;;;14.90;51.10;;;;;;5051232;28;20223;-40
2022/10/23 06:49:13;;;;;;;24.77;22.23;;;15.10;51.10;;;;;;5051508;28;20268;-41
2022/10/23 06:51:39;;;;;;;16.90;15.15;;;15.30;51.00;;;;;;5051385;28;20200;-41
2022/10/23 06:54:05;;;;;;;14.10;12.27;;;15.50;51.00;;;;;;5051629;28;20171;-41
2022/10/23 06:56:31;;;;;;;12.50;11.20;;;15.70;51.50;;;;;;5050892;28;20173;-42
2022/10/23 06:58:57;;;;;;;13.50;11.37;;;15.90;50.60;;;;;;5051309;28;20689;-41
2022/10/23 07:01:23;;;;;;;12.07;10.55;;;16.10;50.30;;;;;;5053873;28;20205;-43
2022/10/23 07:03:48;;;;;;;11.87;8.90;;;16.30;50.10;;;;;;5055157;28;20223;-42
2022/10/23 07:06:14;;;;;;;10.30;9.13;;;16.50;50.60;;;;;;5054326;28;20216;-43
2022/10/23 07:08:40;;;;;;;12.00;10.10;;;16.80;49.80;;;;;;5054918;28;20169;-41
2022/10/23 07:11:08;;;;;;;13.07;9.67;;;17.10;49.60;;;;;;5054882;28;20197;-41
2022/10/23 07:13:34;;;;;;;11.93;8.88;;;17.50;49.60;;;;;;5055053;28;20181;-42
2022/10/23 07:16:17;;;;;;;12.48;10.45;;;17.80;49.00;;;;;;5054189;28;20177;-40
2022/10/23 07:18:44;;;;;;;12.25;9.95;;;18.20;48.70;;;;;;5054749;28;20193;-43
2022/10/23 07:21:10;;;;;;;10.35;9.00;;;18.60;48.20;;;;;;5054639;28;20201;-43
2022/10/23 07:23:36;;;;;;;11.27;9.50;;;19.00;47.60;;;;;;5054723;28;20208;-42
2022/10/23 07:26:10;;;;;;;13.20;10.55;;;19.30;46.70;;;;;;5053966;28;20408;-41
2022/10/23 07:28:36;;;;;;;9.05;7.95;;;19.60;46.40;;;;;;5054684;28;20168;-42
2022/10/23 07:31:02;;;;;;;12.95;10.20;;;19.90;45.70;;;;;;5054627;28;20231;-43
2022/10/23 07:33:28;;;;;;;14.52;10.50;;;20.10;45.10;;;;;;5054435;28;20212;-41
2022/10/23 07:35:54;;;;;;;10.33;8.73;;;20.30;44.90;;;;;;5053911;28;20201;-41
2022/10/23 07:38:20;;;;;;;9.90;8.90;;;20.50;44.60;;;;;;5054409;28;20216;-43
2022/10/23 07:40:45;;;;;;;10.80;8.50;;;20.70;44.00;;;;;;5054283;28;20165;-42
2022/10/23 07:43:11;;;;;;;9.53;8.57;;;20.80;43.50;;;;;;5054315;28;20169;-43
2022/10/23 07:45:37;;;;;;;10.77;8.13;;;20.90;44.00;;;;;;5053953;28;20172;-42
2022/10/23 07:48:03;;;;;;;10.73;7.70;;;20.90;43.70;;;;;;5054456;28;20177;-41
2022/10/23 07:50:28;;;;;;;11.90;8.27;;;20.90;43.00;;;;;;5054294;28;20641;-41
2022/10/23 07:52:55;;;;;;;9.77;7.93;;;20.80;43.40;;;;;;5054526;28;20686;-42
2022/10/23 07:55:21;;;;;;;12.32;7.78;;;20.90;43.30;;;;;;5054295;28;20196;-41
2022/10/23 07:57:47;;;;;;;7.90;7.10;;;20.80;43.00;;;;;;5053507;28;20290;-41
2022/10/23 08:00:13;;;;;;;10.00;7.87;;;20.60;43.90;;;;;;5054094;28;20165;-42
2022/10/23 08:02:39;;;;;;;8.43;7.47;;;20.50;43.90;;;;;;5053883;28;20205;-42
2022/10/23 08:05:05;;;;;;;11.27;7.25;;;20.40;44.10;;;;;;5054050;28;20431;-43
2022/10/23 08:07:31;;;;;;;9.57;7.82;;;20.40;44.80;;;;;;5053366;28;20498;-41
2022/10/23 08:09:57;;;;;;;7.23;6.43;;;20.60;44.60;;;;;;5053995;28;20215;-42
2022/10/23 08:12:22;;;;;;;7.33;6.60;;;20.80;44.90;;;;;;5053442;28;20272;-42
2022/10/23 08:14:48;;;;;;;8.13;6.90;;;20.90;44.20;;;;;;5054368;28;20179;-43
2022/10/23 08:17:14;;;;;;;7.83;6.47;;;21.10;43.80;;;;;;5054408;28;20169;-41
2022/10/23 08:19:45;;;;;;;8.30;7.03;;;21.30;42.80;;;;;;5055442;28;20224;-42
2022/10/23 08:22:11;;;;;;;6.78;6.07;;;21.30;43.20;;;;;;5057573;28;20606;-42
2022/10/23 08:24:37;;;;;;;10.05;7.72;;;21.40;43.60;;;;;;5057456;28;20200;-43
2022/10/23 08:27:02;;;;;;;6.07;5.47;;;21.40;43.30;;;;;;5056985;28;20637;-43
2022/10/23 08:29:28;;;;;;;8.67;5.70;;;21.40;41.90;;;;;;5059886;28;20533;-44
2022/10/23 08:31:56;;;;;;;6.40;5.53;;;21.20;42.80;;;;;;5059202;28;20428;-42
2022/10/23 08:34:22;;;;;;;8.00;5.75;;;21.00;43.10;;;;;;5059120;28;20185;-42
2022/10/23 08:36:49;;;;;;;7.22;6.32;;;21.00;43.30;;;;;;5052825;28;20177;-41
2022/10/23 08:39:15;;;;;;;6.80;6.10;;;21.00;43.40;;;;;;5053608;28;20759;-43
2022/10/23 08:41:46;;;;;;;9.77;7.03;;;21.10;43.30;;;;;;5054363;28;20553;-43
2022/10/23 08:44:32;;;;;;;7.45;6.05;;;21.30;43.60;;;;;;5054636;28;20525;-41
2022/10/23 08:47:04;;;;;;;8.98;6.80;;;21.50;42.90;;;;;;5057207;28;20181;-41
2022/10/23 08:49:39;;;;;;;9.85;6.72;;;21.60;43.10;;;;;;5055777;28;20176;-43
2022/10/23 08:52:38;;;;;;;8.80;6.63;;;22.00;42.80;;;;;;5056356;28;20251;-42
2022/10/23 08:55:26;;;;;;;6.97;6.00;;;22.30;42.10;;;;;;5025498;28;20180;-43
2022/10/23 08:58:15;;;;;;;5.60;5.05;;;22.30;41.00;;;;;;5062530;28;20193;-43
2022/10/23 09:00:42;;;;;;;8.63;6.13;;;22.30;41.90;;;;;;5059875;28;20180;-44
2022/10/23 09:03:10;;;;;;;6.80;5.43;;;22.20;41.50;;;;;;5053504;28;20549;-43
2022/10/23 09:06:07;;;;;;;7.68;6.30;;;22.10;41.70;;;;;;5052442;28;20534;-42
2022/10/23 09:08:46;;;;;;;7.47;5.10;;;22.00;41.50;;;;;;5052641;28;20251;-42
2022/10/23 09:11:36;;;;;;;8.55;6.32;;;21.80;41.60;;;;;;5052473;28;20201;-43
2022/10/23 09:14:20;;;;;;;6.68;5.82;;;21.60;42.60;;;;;;5052678;28;20215;-42
2022/10/23 09:16:49;;;;;;;7.72;5.88;;;21.50;43.00;;;;;;5052029;28;20180;-42
2022/10/23 09:19:18;;;;;;;9.18;5.65;;;21.40;43.30;;;;;;5052618;28;20244;-42
2022/10/23 09:21:48;;;;;;;6.32;5.20;;;21.50;44.20;;;;;;5052511;28;20193;-42
2022/10/23 09:24:18;;;;;;;6.13;5.53;;;21.60;43.80;;;;;;5051445;28;20177;-43
2022/10/23 09:26:49;;;;;;;5.88;5.10;;;21.80;44.30;;;;;;5051932;28;20169;-42
2022/10/23 09:29:21;;;;;;;5.65;4.97;;;21.90;43.80;;;;;;5052925;28;20228;-43
2022/10/23 09:31:51;;;;;;;9.80;5.55;;;22.00;43.50;;;;;;5052666;28;20193;-43
2022/10/23 09:34:23;;;;;;;10.05;5.32;;;22.00;43.00;;;;;;5053005;28;20200;-43
2022/10/23 09:36:52;;;;;;;7.00;5.50;;;21.90;43.50;;;;;;5052331;28;20177;-43
2022/10/23 09:39:25;;;;;;;5.60;5.03;;;21.90;43.40;;;;;;5052548;28;20223;-42
2022/10/23 09:41:50;;;;;;;6.68;5.05;;;21.80;43.70;;;;;;5035072;28;20193;-43
2022/10/23 09:44:34;;;;;;;6.30;5.30;;;21.80;43.90;;;;;;5052480;28;20180;-43
2022/10/23 09:47:12;;;;;;;6.25;4.55;;;21.80;43.50;;;;;;5051678;28;20260;-43
2022/10/23 09:49:40;;;;;;;6.00;4.75;;;21.80;44.10;;;;;;5052616;28;20173;-42
2022/10/23 09:52:08;;;;;;;7.72;5.03;;;21.80;43.60;;;;;;5052036;28;20717;-41
2022/10/23 09:54:44;;;;;;;5.93;4.95;;;21.70;43.90;;;;;;5052053;28;20522;-42
2022/10/23 09:57:37;;;;;;;6.53;5.35;;;21.70;44.30;;;;;;5051534;28;20157;-42
2022/10/23 10:00:22;;;;;;;5.60;4.28;;;21.90;44.80;;;;;;5052361;28;20261;-44
2022/10/23 10:02:56;;;;;;;7.15;5.50;;;22.10;43.80;;;;;;5052085;28;20641;-43
2022/10/23 10:05:24;;;;;;;5.30;4.32;;;22.20;44.00;;;;;;5051825;28;20231;-43
2022/10/23 10:08:16;;;;;;;8.02;5.38;;;22.40;43.60;;;;;;5051422;28;20540;-43
2022/10/23 10:11:08;;;;;;;6.23;5.33;;;22.50;43.20;;;;;;5051948;28;20633;-42
2022/10/23 10:13:37;;;;;;;11.65;5.28;;;22.70;42.30;;;;;;5052154;28;21022;-43
2022/10/23 10:16:31;;;;;;;6.07;5.47;;;22.70;41.80;;;;;;5051289;28;20264;-43
2022/10/23 10:19:33;;;;;;;6.50;4.43;;;22.70;42.10;;;;;;5051983;28;20581;-43
2022/10/23 10:22:19;;;;;;;6.67;5.10;;;22.70;41.30;;;;;;5050505;28;20420;-43
2022/10/23 10:25:11;;;;;;;7.05;5.03;;;22.60;42.00;;;;;;5051848;28;20407;-44
2022/10/23 10:27:59;;;;;;;7.28;5.13;;;22.60;42.10;;;;;;5051205;28;20184;-44
2022/10/23 10:30:48;;;;;;;7.93;4.88;;;22.50;42.20;;;;;;5051756;28;20220;-43
2022/10/23 10:33:41;;;;;;;8.18;4.95;;;22.50;42.80;;;;;;5001258;28;20208;-43
2022/10/23 10:36:28;;;;;;;6.20;5.30;;;22.60;42.30;;;;;;5052446;28;20174;-43
2022/10/23 10:39:01;;;;;;;6.10;5.13;;;22.70;42.90;;;;;;5055323;28;20193;-43
2022/10/23 10:41:46;;;;;;;6.27;5.00;;;22.70;42.10;;;;;;5055681;28;20201;-43
2022/10/23 10:44:45;;;;;;;6.83;5.07;;;22.70;41.90;;;;;;5005018;28;20461;-43
2022/10/23 10:47:40;;;;;;;6.67;4.40;;;22.60;40.50;;;;;;5054816;28;20408;-43
2022/10/23 10:50:27;;;;;;;5.30;4.70;;;22.60;41.70;;;;;;5055518;28;20384;-43
2022/10/23 10:53:12;;;;;;;8.55;5.38;;;22.70;41.70;;;;;;5055261;28;20233;-43
2022/10/23 10:55:41;;;;;;;8.43;5.90;;;22.70;41.90;;;;;;5054774;28;20184;-43
2022/10/23 10:58:15;;;;;;;8.10;5.60;;;22.70;41.30;;;;;;5055196;28;20201;-43
2022/10/23 11:00:43;;;;;;;7.63;5.27;;;22.70;40.20;;;;;;5055229;28;20481;-44
2022/10/23 11:03:22;;;;;;;5.80;4.43;;;22.70;40.80;;;;;;5055095;28;20416;-44
2022/10/23 11:05:50;;;;;;;6.13;5.20;;;22.70;40.80;;;;;;5054598;28;20410;-44
2022/10/23 11:08:28;;;;;;;6.23;5.00;;;22.80;40.40;;;;;;5054978;28;21052;-44
2022/10/23 11:11:00;;;;;;;6.70;3.70;;;22.80;41.30;;;;;;5054816;28;20442;-43
2022/10/23 11:13:33;;;;;;;6.97;5.33;;;23.00;41.10;;;;;;5054969;28;20469;-44
2022/10/23 11:16:19;;;;;;;5.57;4.85;;;23.10;40.10;;;;;;5054210;28;20416;-44
2022/10/23 11:18:56;;;;;;;6.17;4.00;;;23.20;39.40;;;;;;5054661;28;20185;-43
2022/10/23 11:21:54;;;;;;;7.40;4.03;;;23.10;39.80;;;;;;5054845;28;20493;-44
2022/10/23 11:24:56;;;;;;;6.43;4.47;;;23.10;40.10;;;;;;5032891;28;20420;-44
2022/10/23 11:27:31;;;;;;;5.97;4.17;;;23.20;40.10;;;;;;5054202;28;20399;-43
2022/10/23 11:30:12;;;;;;;5.40;4.30;;;23.10;40.30;;;;;;5054676;28;20400;-44
2022/10/23 11:33:27;;;;;;;6.43;4.63;;;23.00;40.00;;;;;;5054961;28;20419;-44
2022/10/23 11:36:04;;;;;;;5.90;4.83;;;22.90;39.90;;;;;;5054125;28;21504;-44
2022/10/23 11:38:32;;;;;;;5.10;4.10;;;22.90;39.70;;;;;;5054505;28;20976;-43
2022/10/23 11:41:25;;;;;;;7.10;4.10;;;22.80;40.00;;;;;;5054446;28;20775;-44
2022/10/23 11:44:03;;;;;;;6.90;5.67;;;22.70;40.10;;;;;;5055585;28;20898;-44
2022/10/23 11:46:36;;;;;;;5.82;4.35;;;22.60;40.20;;;;;;5054263;28;20400;-44
2022/10/23 11:49:04;;;;;;;6.80;3.90;;;22.60;40.00;;;;;;5055442;28;20180;-44
2022/10/23 11:51:33;;;;;;;5.40;4.55;;;22.70;40.20;;;;;;5055771;28;20438;-44
2022/10/23 11:54:14;;;;;;;6.70;3.88;;;22.80;39.80;;;;;;5055496;28;20260;-43
2022/10/23 11:57:02;;;;;;;7.50;4.70;;;22.80;40.10;;;;;;5053470;28;20166;-44
2022/10/23 11:59:38;;;;;;;4.77;3.97;;;22.70;40.30;;;;;;5053902;28;20508;-44
2022/10/23 12:02:30;;;;;;;5.17;3.90;;;22.70;40.10;;;;;;5053834;28;20907;-44
2022/10/23 12:05:03;;;;;;;5.30;4.13;;;22.70;40.70;;;;;;5053915;28;20446;-44
2022/10/23 12:07:33;;;;;;;5.43;4.80;;;22.70;40.60;;;;;;5053493;28;20391;-44
2022/10/23 12:10:06;;;;;;;7.30;6.23;;;22.70;40.20;;;;;;5036138;28;20443;-44
2022/10/23 12:12:39;;;;;;;5.13;4.63;;;22.60;39.60;;;;;;5053722;28;20419;-44
2022/10/23 12:15:13;;;;;;;8.33;4.63;;;22.50;39.90;;;;;;5057223;28;20419;-44
2022/10/23 12:17:41;;;;;;;7.83;5.83;;;22.30;40.30;;;;;;5056303;28;20400;-44
2022/10/23 12:20:10;;;;;;;6.33;5.37;;;22.10;41.00;;;;;;5056363;28;20408;-44
2022/10/23 12:22:59;;;;;;;5.53;4.30;;;22.10;41.10;;;;;;5056066;28;20838;-43
2022/10/23 12:25:42;;;;;;;6.80;4.90;;;22.10;41.00;;;;;;5055894;28;20869;-43
2022/10/23 12:28:32;;;;;;;5.83;4.30;;;21.90;41.60;;;;;;5055093;28;20407;-43
2022/10/23 12:31:07;;;;;;;5.40;4.43;;;21.90;41.90;;;;;;5053278;28;20428;-44
2022/10/23 12:33:48;;;;;;;5.97;4.70;;;21.80;42.10;;;;;;5053344;28;20926;-44
2022/10/23 12:36:46;;;;;;;9.63;5.57;;;21.80;42.00;;;;;;5053001;28;20589;-44
2022/10/23 12:39:36;;;;;;;6.75;3.83;;;21.80;42.20;;;;;;5053137;28;20451;-44
2022/10/23 12:42:03;;;;;;;6.90;3.55;;;21.80;41.80;;;;;;5053019;28;20553;-44
2022/10/23 12:44:29;;;;;;;6.43;4.37;;;21.80;41.90;;;;;;5053204;28;20166;-44
2022/10/23 12:47:04;;;;;;;5.80;5.20;;;21.80;41.70;;;;;;5052477;28;20410;-44
2022/10/23 12:49:33;;;;;;;4.40;3.53;;;21.90;42.00;;;;;;5053015;28;20852;-44
2022/10/23 12:52:17;;;;;;;6.00;5.40;;;22.10;41.80;;;;;;5052749;28;20868;-44
2022/10/23 12:54:44;;;;;;;5.40;4.75;;;22.20;41.20;;;;;;5052850;28;20439;-44
2022/10/23 12:57:18;;;;;;;5.55;5.05;;;22.20;41.40;;;;;;5052311;28;20252;-44
2022/10/23 12:59:44;;;;;;;4.97;4.10;;;22.30;41.60;;;;;;5052953;28;20197;-44
2022/10/23 13:02:25;;;;;;;8.30;4.47;;;22.30;40.80;;;;;;5052583;28;20447;-44
2022/10/23 13:04:53;;;;;;;8.43;7.55;;;22.20;40.70;;;;;;5053356;28;20404;-45